Time;durP1;ratioP1;P1;durP2;ratioP2;P2;SDS_P1;SDS_P2;PMS_P1;PMS_P2;Temp;Humidity;BMP_temperature;BMP_pressure;BME280_temperature;BME280_humidity;BME280_pressure;Samples;Min_cycle;Max_cycle;Signal;HPM_P1;HPM_P2
2023/06/21 05:13:24;;;;;;;;;;;;;;;8.35;100.00;99654.28;6096245;23;19928;-85
2023/06/21 05:15:49;;;;;;;;;;;;;;;8.33;100.00;99643.78;6120230;23;19945;-82
2023/06/21 05:18:15;;;;;;;;;;;;;;;8.30;100.00;99653.59;6097544;23;19913;-82
2023/06/21 05:20:40;;;;;;;;;;;;;;;8.26;100.00;99665.19;6096823;23;19925;-82
2023/06/21 05:23:05;;;;;;;;;;;;;;;8.28;100.00;99663.34;6120557;23;19979;-82
2023/06/21 05:25:30;;;;;;;;;;;;;;;8.29;100.00;99652.72;6096158;23;19920;-83
2023/06/21 05:27:56;;;;;;;;;;;;;;;8.29;100.00;99659.78;6115896;23;19918;-83
2023/06/21 05:30:21;;;;;;;;;;;;;;;8.22;100.00;99667.06;6120490;23;19992;-82
2023/06/21 05:32:46;;;;;;;;;;;;;;;8.25;100.00;99674.00;6097253;23;19956;-83
2023/06/21 05:35:12;;;;;;;;;;;;;;;8.33;100.00;99687.81;6095720;23;20296;-82
2023/06/21 05:37:37;;;;;;;;;;;;;;;8.26;100.00;99696.84;6120381;23;19913;-84
2023/06/21 05:40:03;;;;;;;;;;;;;;;8.27;100.00;99709.16;6096371;23;19924;-82
2023/06/21 05:42:29;;;;;;;;;;;;;;;8.28;100.00;99697.66;6096411;23;19922;-83
2023/06/21 05:44:54;;;;;;;;;;;;;;;8.32;100.00;99701.91;6097829;23;19913;-83
2023/06/21 05:47:19;;;;;;;;;;;;;;;8.33;100.00;99699.22;6071770;23;19923;-82
2023/06/21 05:49:45;;;;;;;;;;;;;;;8.42;100.00;99703.31;6097012;23;20012;-83
2023/06/21 05:52:10;;;;;;;;;;;;;;;8.47;100.00;99701.41;6097184;23;19924;-83
2023/06/21 05:54:37;;;;;;;;;;;;;;;8.51;100.00;99708.31;6119949;23;20000;-82
2023/06/21 05:57:04;;;;;;;;;;;;;;;8.46;100.00;99712.88;6095314;23;20253;-82
2023/06/21 05:59:29;;;;;;;;;;;;;;;8.48;100.00;99712.84;6096912;23;19917;-82
2023/06/21 06:01:54;;;;;;;;;;;;;;;8.38;100.00;99717.56;6096996;23;19924;-83
2023/06/21 06:04:19;;;;;;;;;;;;;;;8.36;100.00;99722.03;6096896;23;19913;-82
2023/06/21 06:06:44;;;;;;;;;;;;;;;8.29;100.00;99733.69;6119429;23;19997;-82
2023/06/21 06:09:11;;;;;;;;;;;;;;;8.30;100.00;99730.16;6096964;23;19913;-82
2023/06/21 06:11:36;;;;;;;;;;;;;;;8.25;100.00;99734.72;6094809;23;19918;-82
2023/06/21 06:14:02;;;;;;;;;;;;;;;8.25;100.00;99727.69;6096939;23;19924;-81
2023/06/21 06:16:27;;;;;;;;;;;;;;;8.27;100.00;99722.34;6071200;23;19920;-81
2023/06/21 06:18:53;;;;;;;;;;;;;;;8.25;100.00;99716.22;6119589;23;19917;-82
2023/06/21 06:21:21;;;;;;;;;;;;;;;8.27;100.00;99719.72;6096755;23;19916;-83
2023/06/21 06:23:48;;;;;;;;;;;;;;;8.25;100.00;99729.44;6096468;23;19928;-82
2023/06/21 06:26:13;;;;;;;;;;;;;;;8.25;100.00;99734.72;6095014;23;20360;-84
2023/06/21 06:28:38;;;;;;;;;;;;;;;8.30;100.00;99730.16;6096874;23;19917;-83
2023/06/21 06:31:03;;;;;;;;;;;;;;;8.30;100.00;99725.72;6096708;23;19924;-84
2023/06/21 06:33:28;;;;;;;;;;;;;;;8.37;100.00;99723.75;6096592;23;19995;-84
2023/06/21 06:35:54;;;;;;;;;;;;;;;8.36;100.00;99729.94;6096594;23;19921;-83
2023/06/21 06:38:19;;;;;;;;;;;;;;;8.32;100.00;99728.31;6096538;23;20230;-82
2023/06/21 06:40:44;;;;;;;;;;;;;;;8.27;100.00;99730.25;6094892;23;19917;-83
2023/06/21 06:43:10;;;;;;;;;;;;;;;8.26;100.00;99728.53;6096678;23;20122;-83
2023/06/21 06:45:35;;;;;;;;;;;;;;;8.25;100.00;99730.31;6119283;23;19924;-83
2023/06/21 06:48:00;;;;;;;;;;;;;;;8.25;100.00;99721.50;6119352;23;19916;-84
2023/06/21 06:50:25;;;;;;;;;;;;;;;8.22;100.00;99722.50;6096474;23;19921;-84
2023/06/21 06:52:52;;;;;;;;;;;;;;;8.24;100.00;99722.44;6119437;23;19992;-82
2023/06/21 06:55:17;;;;;;;;;;;;;;;8.21;100.00;99730.47;6117723;23;20329;-85
2023/06/21 06:57:42;;;;;;;;;;;;;;;8.21;100.00;99727.81;6119156;23;19937;-84
2023/06/21 07:00:15;;;;;;;;;;;;;;;8.16;100.00;99731.47;6119464;23;19921;-81
2023/06/21 07:02:40;;;;;;;;;;;;;;;8.16;100.00;99739.38;6096547;23;19917;-82
2023/06/21 07:05:05;;;;;;;;;;;;;;;8.23;100.00;99742.69;6119372;23;19963;-82
2023/06/21 07:07:30;;;;;;;;;;;;;;;8.25;100.00;99746.16;6119403;23;19955;-83
2023/06/21 07:09:56;;;;;;;;;;;;;;;8.19;100.00;99755.13;6119102;23;19921;-84
2023/06/21 07:12:21;;;;;;;;;;;;;;;8.19;100.00;99746.34;6117555;23;20393;-83
2023/06/21 07:14:47;;;;;;;;;;;;;;;8.22;100.00;99754.19;6096278;23;20255;-83
2023/06/21 07:17:12;;;;;;;;;;;;;;;8.24;100.00;99756.75;6095854;23;19948;-82
2023/06/21 07:19:38;;;;;;;;;;;;;;;8.26;100.00;99754.94;6096114;23;20302;-84
2023/06/21 07:22:04;;;;;;;;;;;;;;;8.24;100.00;99752.34;6095696;23;20015;-83
2023/06/21 07:24:29;;;;;;;;;;;;;;;8.30;100.00;99756.56;6096536;23;20348;-86
2023/06/21 07:26:54;;;;;;;;;;;;;;;8.28;100.00;99745.16;6117224;23;19917;-83
2023/06/21 07:29:20;;;;;;;;;;;;;;;8.25;100.00;99738.22;6094777;23;19951;-82
2023/06/21 07:31:45;;;;;;;;;;;;;;;8.27;100.00;99738.19;6096219;23;19920;-84
2023/06/21 07:34:12;;;;;;;;;;;;;;;8.26;100.00;99734.66;6096229;23;20283;-84
2023/06/21 07:36:39;;;;;;;;;;;;;;;8.29;100.00;99731.91;6096168;23;19920;-84
2023/06/21 07:39:04;;;;;;;;;;;;;;;8.36;100.00;99729.94;6096587;23;19913;-84
2023/06/21 07:41:29;;;;;;;;;;;;;;;8.42;100.00;99729.72;6092999;23;20471;-84
2023/06/21 07:43:54;;;;;;;;;;;;;;;8.43;100.00;99731.47;6094803;23;20092;-84
2023/06/21 07:46:20;;;;;;;;;;;;;;;8.45;100.00;99729.63;6096130;23;19917;-84
2023/06/21 07:48:45;;;;;;;;;;;;;;;8.44;100.00;99730.56;6096024;23;19913;-83
2023/06/21 07:51:10;;;;;;;;;;;;;;;8.59;100.00;99731.81;6096153;23;19919;-84
2023/06/21 07:53:35;;;;;;;;;;;;;;;8.78;100.00;99732.00;6096151;23;19996;-84
2023/06/21 07:56:01;;;;;;;;;;;;;;;8.63;100.00;99733.44;6094670;23;20219;-84
2023/06/21 07:58:26;;;;;;;;;;;;;;;8.62;100.00;99734.34;6118886;23;19999;-85
2023/06/21 08:00:51;;;;;;;;;;;;;;;8.57;100.00;99738.03;6095944;23;19913;-84
2023/06/21 08:03:17;;;;;;;;;;;;;;;8.50;100.00;99748.84;6095944;23;19971;-84
2023/06/21 08:05:44;;;;;;;;;;;;;;;8.46;100.00;99739.28;6096999;23;19913;-84
2023/06/21 08:08:09;;;;;;;;;;;;;;;8.49;100.00;99738.34;6119355;23;19909;-84
2023/06/21 08:10:35;;;;;;;;;;;;;;;8.44;100.00;99743.78;6094321;23;19961;-84
2023/06/21 08:13:00;;;;;;;;;;;;;;;8.48;100.00;99755.09;6095758;23;19921;-85
2023/06/21 08:15:25;;;;;;;;;;;;;;;8.44;100.00;99746.41;6096053;23;19920;-84
2023/06/21 08:17:51;;;;;;;;;;;;;;;8.44;100.00;99749.06;6095986;23;19918;-84
2023/06/21 08:20:17;;;;;;;;;;;;;;;8.46;100.00;99749.84;6096079;23;19924;-84
2023/06/21 08:22:42;;;;;;;;;;;;;;;8.41;100.00;99746.50;6095882;23;19918;-85
2023/06/21 08:25:07;;;;;;;;;;;;;;;8.50;100.00;99748.84;6095314;23;19914;-84
2023/06/21 08:27:32;;;;;;;;;;;;;;;8.45;100.00;99745.47;6095118;23;19913;-87
2023/06/21 08:29:58;;;;;;;;;;;;;;;8.54;100.00;99750.44;6095968;23;19965;-85
2023/06/21 08:32:24;;;;;;;;;;;;;;;8.53;100.00;99754.00;6120800;23;19917;-85
2023/06/21 08:34:50;;;;;;;;;;;;;;;8.54;100.00;99745.16;6097799;23;20334;-85
2023/06/21 08:37:21;;;;;;;;;;;;;;;8.54;100.00;99747.81;6097748;23;19920;-85
2023/06/21 08:39:47;;;;;;;;;;;;;;;8.54;100.00;99739.03;6097563;23;20353;-84
2023/06/21 08:42:12;;;;;;;;;;;;;;;8.53;100.00;99743.44;6096178;23;19920;-84
2023/06/21 08:44:37;;;;;;;;;;;;;;;8.54;100.00;99733.75;6097729;23;20238;-84
2023/06/21 08:47:04;;;;;;;;;;;;;;;8.53;100.00;99746.06;6120615;23;19945;-84
2023/06/21 08:49:29;;;;;;;;;;;;;;;8.57;100.00;99759.16;6120602;23;19919;-84
2023/06/21 08:51:55;;;;;;;;;;;;;;;8.54;100.00;99760.16;6097698;23;19918;-84
2023/06/21 08:54:24;;;;;;;;;;;;;;;8.60;100.00;99757.31;6097505;23;19919;-84
2023/06/21 08:57:14;;;;;;;;;;;;;;;8.58;100.00;99759.13;6070381;23;19920;-85
2023/06/21 08:59:49;;;;;;;;;;;;;;;8.58;100.00;99758.25;6097536;23;20293;-84
2023/06/21 09:02:29;;;;;;;;;;;;;;;8.60;100.00;99761.72;6097565;23;19917;-84
2023/06/21 09:04:57;;;;;;;;;;;;;;;8.56;100.00;99758.31;6097411;23;19924;-84
2023/06/21 09:07:22;;;;;;;;;;;;;;;8.51;100.00;99774.31;6097596;23;20044;-84
2023/06/21 09:09:50;;;;;;;;;;;;;;;8.56;100.00;99768.03;6097442;23;19942;-84
2023/06/21 09:12:16;;;;;;;;;;;;;;;8.51;100.00;99776.97;6094139;23;19975;-84
2023/06/21 09:14:42;;;;;;;;;;;;;;;8.52;100.00;99767.25;6094364;23;20309;-84
2023/06/21 09:17:08;;;;;;;;;;;;;;;8.53;100.00;99772.47;6095657;23;19913;-84
2023/06/21 09:19:34;;;;;;;;;;;;;;;8.52;100.00;99768.13;6095674;23;19917;-84
2023/06/21 09:21:59;;;;;;;;;;;;;;;8.59;100.00;99766.13;6071478;23;19924;-84
2023/06/21 09:24:24;;;;;;;;;;;;;;;8.56;100.00;99762.75;6096236;23;19913;-83
2023/06/21 09:26:50;;;;;;;;;;;;;;;8.57;100.00;99769.75;6092723;23;20219;-83
2023/06/21 09:29:15;;;;;;;;;;;;;;;8.53;100.00;99764.56;6095410;23;19913;-84
2023/06/21 09:31:41;;;;;;;;;;;;;;;8.57;100.00;99777.66;6119022;23;19917;-84
2023/06/21 09:34:06;;;;;;;;;;;;;;;8.56;100.00;99778.59;6097124;23;20294;-84
2023/06/21 09:36:32;;;;;;;;;;;;;;;8.53;100.00;99779.56;6093301;23;19928;-84
2023/06/21 09:39:07;;;;;;;;;;;;;;;8.53;100.00;99783.03;6088392;23;20000;-84
2023/06/21 09:41:33;;;;;;;;;;;;;;;8.51;100.00;99784.88;6093593;23;20314;-84
2023/06/21 09:43:58;;;;;;;;;;;;;;;8.51;100.00;99787.53;6096066;23;19917;-83
2023/06/21 09:46:24;;;;;;;;;;;;;;;8.50;100.00;99788.47;6096747;23;19945;-84
2023/06/21 09:48:49;;;;;;;;;;;;;;;8.53;100.00;99798.88;6096369;23;19987;-83
2023/06/21 09:51:14;;;;;;;;;;;;;;;8.52;100.00;99802.47;6096486;23;19920;-83
2023/06/21 09:53:44;;;;;;;;;;;;;;;8.54;100.00;99797.13;6096733;23;19923;-83
2023/06/21 09:56:12;;;;;;;;;;;;;;;8.57;100.00;99797.03;6093719;23;20345;-83
2023/06/21 09:58:40;;;;;;;;;;;;;;;8.53;100.00;99796.25;6096769;23;19917;-83
2023/06/21 10:01:06;;;;;;;;;;;;;;;8.56;100.00;99810.28;6095902;23;19937;-83
2023/06/21 10:03:32;;;;;;;;;;;;;;;8.59;100.00;99815.47;6096078;23;19913;-84
2023/06/21 10:05:58;;;;;;;;;;;;;;;8.61;100.00;99811.84;6095649;23;19963;-83
2023/06/21 10:08:25;;;;;;;;;;;;;;;8.63;100.00;99814.44;6070720;23;19909;-83
2023/06/21 10:10:50;;;;;;;;;;;;;;;8.64;100.00;99824.09;6069651;23;19925;-83
2023/06/21 10:13:16;;;;;;;;;;;;;;;8.64;100.00;99822.31;6095822;23;19921;-84
2023/06/21 10:15:45;;;;;;;;;;;;;;;8.68;100.00;99821.28;6096349;23;19925;-83
2023/06/21 10:18:12;;;;;;;;;;;;;;;8.64;100.00;99817.03;6096500;23;19913;-83
2023/06/21 10:20:38;;;;;;;;;;;;;;;8.64;100.00;99817.03;6094674;23;20007;-84
2023/06/21 10:23:04;;;;;;;;;;;;;;;8.62;100.00;99813.56;6096038;23;19917;-83
2023/06/21 10:25:30;;;;;;;;;;;;;;;8.64;100.00;99810.88;6068807;23;19924;-83
2023/06/21 10:27:56;;;;;;;;;;;;;;;8.60;100.00;99806.59;6094683;23;19992;-83
2023/06/21 10:30:22;;;;;;;;;;;;;;;8.60;100.00;99807.50;6096587;23;19991;-84
2023/06/21 10:32:49;;;;;;;;;;;;;;;8.59;100.00;99810.19;6093874;23;19973;-83
2023/06/21 10:35:19;;;;;;;;;;;;;;;8.57;100.00;99806.72;6117845;23;19952;-83
2023/06/21 10:37:49;;;;;;;;;;;;;;;8.58;100.00;99804.00;6094460;23;19992;-83
2023/06/21 10:40:15;;;;;;;;;;;;;;;8.59;100.00;99810.19;6092516;23;19909;-83
2023/06/21 10:42:41;;;;;;;;;;;;;;;8.58;100.00;99803.16;6095986;23;19913;-83
2023/06/21 10:45:08;;;;;;;;;;;;;;;8.57;100.00;99798.78;6094408;23;19917;-83
2023/06/21 10:47:33;;;;;;;;;;;;;;;8.58;100.00;99801.38;6070010;23;20036;-83
2023/06/21 10:49:59;;;;;;;;;;;;;;;8.59;100.00;99803.13;6094443;23;20318;-83
2023/06/21 10:52:27;;;;;;;;;;;;;;;8.59;100.00;99799.63;6095327;23;20233;-84
2023/06/21 10:54:56;;;;;;;;;;;;;;;8.60;100.00;99786.38;6096011;23;20337;-83
2023/06/21 10:57:22;;;;;;;;;;;;;;;8.65;100.00;99779.13;6094546;23;19913;-84
2023/06/21 10:59:47;;;;;;;;;;;;;;;8.62;100.00;99778.38;6096287;23;20429;-83
2023/06/21 11:02:12;;;;;;;;;;;;;;;8.64;100.00;99789.75;6096593;23;20019;-83
2023/06/21 11:04:57;;;;;;;;;;;;;;;8.62;100.00;99778.38;6095657;23;19917;-82
2023/06/21 11:07:25;;;;;;;;;;;;;;;8.66;100.00;99785.28;6094834;23;19920;-85
2023/06/21 11:09:52;;;;;;;;;;;;;;;8.68;100.00;99794.88;6094452;23;19918;-82
2023/06/21 11:12:17;;;;;;;;;;;;;;;8.67;100.00;99797.56;6090744;23;20090;-83
2023/06/21 11:14:43;;;;;;;;;;;;;;;8.70;100.00;99789.53;6095220;23;19913;-83
2023/06/21 11:17:12;;;;;;;;;;;;;;;8.68;100.00;99783.44;6069460;23;19913;-82
2023/06/21 11:19:37;;;;;;;;;;;;;;;8.69;100.00;99788.66;6095553;23;20681;-85
2023/06/21 11:22:22;;;;;;;;;;;;;;;8.65;100.00;99787.06;6095028;23;19992;-83
2023/06/21 11:25:00;;;;;;;;;;;;;;;8.67;100.00;99789.66;6092644;23;19957;-82
2023/06/21 11:27:26;;;;;;;;;;;;;;;8.69;100.00;99796.59;6092118;23;19917;-83
2023/06/21 11:29:59;;;;;;;;;;;;;;;8.73;100.00;99790.28;6091882;23;19914;-82
2023/06/21 11:32:26;;;;;;;;;;;;;;;8.75;100.00;99797.31;6117248;23;20373;-83
2023/06/21 11:34:53;;;;;;;;;;;;;;;8.71;100.00;99799.16;6094809;23;19948;-83
2023/06/21 11:37:41;;;;;;;;;;;;;;;8.71;100.00;99804.44;6092145;23;19944;-83
2023/06/21 11:40:10;;;;;;;;;;;;;;;8.73;100.00;99814.06;6095935;23;19984;-83
2023/06/21 11:42:37;;;;;;;;;;;;;;;8.78;100.00;99808.63;6092422;23;20242;-83
2023/06/21 11:45:20;;;;;;;;;;;;;;;8.78;100.00;99807.78;6090526;23;20037;-82
2023/06/21 11:48:08;;;;;;;;;;;;;;;8.76;100.00;99807.81;6088726;23;19940;-85
2023/06/21 11:50:40;;;;;;;;;;;;;;;8.73;100.00;99813.22;6094026;23;19969;-82
2023/06/21 11:53:12;;;;;;;;;;;;;;;8.80;100.00;99808.56;6094055;23;19942;-82
2023/06/21 11:55:38;;;;;;;;;;;;;;;8.80;100.00;99804.13;6094176;23;19913;-83
2023/06/21 11:58:03;;;;;;;;;;;;;;;8.80;100.00;99795.38;6095438;23;19913;-83
2023/06/21 12:00:31;;;;;;;;;;;;;;;8.89;100.00;99803.81;6095817;23;20355;-83
2023/06/21 12:02:56;;;;;;;;;;;;;;;9.04;100.00;99796.25;6070542;23;20277;-83
2023/06/21 12:05:21;;;;;;;;;;;;;;;9.21;100.00;99783.28;6090875;23;19917;-82
2023/06/21 12:07:47;;;;;;;;;;;;;;;9.19;100.00;99785.13;6092203;23;19940;-82
2023/06/21 12:10:12;;;;;;;;;;;;;;;9.21;100.00;99783.28;6092928;23;19917;-83
2023/06/21 12:12:37;;;;;;;;;;;;;;;9.16;100.00;99785.25;6096748;23;19917;-83
2023/06/21 12:15:04;;;;;;;;;;;;;;;9.15;100.00;99783.50;6097142;23;19984;-84
2023/06/21 12:17:29;;;;;;;;;;;;;;;9.15;100.00;99782.66;6097745;23;20490;-83
2023/06/21 12:19:56;;;;;;;;;;;;;;;9.18;100.00;99782.53;6096244;23;19956;-83
2023/06/21 12:22:22;;;;;;;;;;;;;;;9.13;100.00;99773.94;6120893;23;19917;-83
2023/06/21 12:24:47;;;;;;;;;;;;;;;9.17;100.00;99783.44;6097808;23;19920;-84
2023/06/21 12:27:13;;;;;;;;;;;;;;;9.17;100.00;99773.72;6094699;23;20000;-83
2023/06/21 12:29:45;;;;;;;;;;;;;;;9.14;100.00;99771.19;6096252;23;19917;-83
2023/06/21 12:32:11;;;;;;;;;;;;;;;9.14;100.00;99770.34;6097841;23;20290;-86
2023/06/21 12:34:38;;;;;;;;;;;;;;;9.14;100.00;99773.84;6096555;23;19941;-83
2023/06/21 12:37:03;;;;;;;;;;;;;;;9.14;100.00;99773.84;6097783;23;20315;-83
2023/06/21 12:39:29;;;;;;;;;;;;;;;9.14;100.00;99765.06;6089843;23;19913;-83
2023/06/21 12:41:54;;;;;;;;;;;;;;;9.13;100.00;99764.22;6094640;23;19935;-83
2023/06/21 12:44:21;;;;;;;;;;;;;;;9.12;100.00;99751.03;6096258;23;19917;-83
2023/06/21 12:46:46;;;;;;;;;;;;;;;9.12;100.00;99757.19;6096209;23;19941;-83
2023/06/21 12:49:13;;;;;;;;;;;;;;;9.16;100.00;99758.81;6096071;23;19917;-83
2023/06/21 12:51:38;;;;;;;;;;;;;;;9.10;100.00;99761.69;6097953;23;19928;-84
2023/06/21 12:54:04;;;;;;;;;;;;;;;9.16;100.00;99760.56;6096053;23;20000;-84
2023/06/21 12:56:31;;;;;;;;;;;;;;;9.09;100.00;99759.94;6094563;23;19914;-84
2023/06/21 12:58:56;;;;;;;;;;;;;;;9.11;100.00;99757.25;6072440;23;20447;-83
2023/06/21 13:01:22;;;;;;;;;;;;;;;9.13;100.00;99756.28;6097545;23;19917;-84
2023/06/21 13:03:47;;;;;;;;;;;;;;;9.13;100.00;99766.84;6097532;23;19914;-84
2023/06/21 13:06:13;;;;;;;;;;;;;;;9.14;100.00;99760.63;6097711;23;19917;-87
2023/06/21 13:08:38;;;;;;;;;;;;;;;9.12;100.00;99762.47;6095626;23;19919;-84
2023/06/21 13:11:04;;;;;;;;;;;;;;;9.14;100.00;99762.41;6095314;23;19917;-83
2023/06/21 13:13:30;;;;;;;;;;;;;;;9.14;100.00;99759.78;6095580;23;19964;-84
2023/06/21 13:15:58;;;;;;;;;;;;;;;9.11;100.00;99765.16;6097415;23;20425;-83
2023/06/21 13:18:24;;;;;;;;;;;;;;;9.13;100.00;99753.63;6120040;23;20253;-83
2023/06/21 13:20:50;;;;;;;;;;;;;;;13.96;100.00;99734.44;6097337;23;20000;-82
2023/06/21 13:23:16;;;;;;;;;;;;;;;10.06;100.00;99745.56;6097238;23;19996;-82
2023/06/21 13:25:41;;;;;;;;;;;;;;;9.58;100.00;99754.56;6093175;23;19963;-82
2023/06/21 13:28:07;;;;;;;;;;;;;;;9.43;100.00;99756.03;6096212;23;19992;-83
2023/06/21 13:30:32;;;;;;;;;;;;;;;9.37;100.00;99743.91;6092475;23;19924;-82
2023/06/21 13:32:57;;;;;;;;;;;;;;;9.33;100.00;99752.84;6097231;23;19924;-81
2023/06/21 13:35:22;;;;;;;;;;;;;;;9.26;100.00;99749.59;6120078;23;20233;-82
2023/06/21 13:37:48;;;;;;;;;;;;;;;9.25;100.00;99750.53;6097192;23;20016;-82
2023/06/21 13:40:13;;;;;;;;;;;;;;;9.24;100.00;99747.94;6095649;23;19964;-82
2023/06/21 13:42:38;;;;;;;;;;;;;;;9.21;100.00;99748.91;6096316;23;19921;-82
2023/06/21 13:45:04;;;;;;;;;;;;;;;9.18;100.00;99749.03;6119390;23;19940;-82
2023/06/21 13:47:29;;;;;;;;;;;;;;;9.22;100.00;99745.34;6095005;23;19913;-82
2023/06/21 13:49:55;;;;;;;;;;;;;;;9.13;100.00;99740.41;6087154;23;19918;-82
2023/06/21 13:52:24;;;;;;;;;;;;;;;9.14;100.00;99746.56;6094104;23;19913;-84
2023/06/21 13:54:49;;;;;;;;;;;;;;;9.18;100.00;99734.97;6096174;23;19914;-82
2023/06/21 13:57:15;;;;;;;;;;;;;;;9.12;100.00;99745.75;6093877;23;19919;-82
2023/06/21 13:59:49;;;;;;;;;;;;;;;9.14;100.00;99738.63;6096162;23;19961;-82
2023/06/21 14:02:15;;;;;;;;;;;;;;;9.11;100.00;99744.03;6070733;23;20314;-81
2023/06/21 14:04:44;;;;;;;;;;;;;;;9.09;100.00;99752.00;6095949;23;19918;-82
2023/06/21 14:07:13;;;;;;;;;;;;;;;9.10;100.00;99751.09;6094411;23;20352;-82
2023/06/21 14:09:41;;;;;;;;;;;;;;;9.09;100.00;99752.91;6096112;23;20004;-82
2023/06/21 14:12:06;;;;;;;;;;;;;;;9.14;100.00;99750.03;6086782;23;19917;-81
2023/06/21 14:14:32;;;;;;;;;;;;;;;9.11;100.00;99758.13;6094950;23;19917;-81
2023/06/21 14:16:57;;;;;;;;;;;;;;;9.13;100.00;99764.22;6093965;23;19913;-82
2023/06/21 14:19:22;;;;;;;;;;;;;;;9.17;100.00;99764.94;6095797;23;19913;-82
2023/06/21 14:21:47;;;;;;;;;;;;;;;9.20;100.00;99765.69;6096173;23;20462;-83
2023/06/21 14:24:13;;;;;;;;;;;;;;;9.20;100.00;99763.03;6094921;23;19913;-82
2023/06/21 14:26:39;;;;;;;;;;;;;;;9.22;100.00;99769.16;6086384;23;19922;-82
2023/06/21 14:29:04;;;;;;;;;;;;;;;9.20;100.00;99763.03;6094120;23;20052;-82
2023/06/21 14:31:31;;;;;;;;;;;;;;;9.25;100.00;99765.50;6095708;23;19917;-84
2023/06/21 14:33:57;;;;;;;;;;;;;;;9.25;100.00;99762.88;6096250;23;19921;-83
2023/06/21 14:36:23;;;;;;;;;;;;;;;9.20;100.00;99755.09;6086231;23;19924;-83
2023/06/21 14:38:48;;;;;;;;;;;;;;;9.16;100.00;99764.09;6092167;23;19988;-82
2023/06/21 14:41:13;;;;;;;;;;;;;;;9.18;100.00;99764.88;6094591;23;19977;-83
2023/06/21 14:43:38;;;;;;;;;;;;;;;9.22;100.00;99752.41;6095015;23;19917;-82
2023/06/21 14:46:04;;;;;;;;;;;;;;;9.17;100.00;99759.66;6093667;23;19914;-83
2023/06/21 14:48:29;;;;;;;;;;;;;;;9.16;100.00;99755.28;6094438;23;20664;-83
2023/06/21 14:50:54;;;;;;;;;;;;;;;9.16;100.00;99756.16;6070622;23;19914;-83
2023/06/21 14:53:20;;;;;;;;;;;;;;;9.15;100.00;99757.06;6094278;23;19972;-83
2023/06/21 14:55:45;;;;;;;;;;;;;;;9.19;100.00;99753.41;6092700;23;19917;-82
2023/06/21 14:58:11;;;;;;;;;;;;;;;9.18;100.00;99741.09;6095622;23;19920;-83
2023/06/21 15:00:36;;;;;;;;;;;;;;;9.16;100.00;99742.06;6095875;23;20326;-83
2023/06/21 15:03:01;;;;;;;;;;;;;;;9.16;100.00;99744.69;6096106;23;20004;-83
2023/06/21 15:05:26;;;;;;;;;;;;;;;9.14;100.00;99750.03;6096335;23;19917;-83
2023/06/21 15:07:52;;;;;;;;;;;;;;;9.19;100.00;99748.13;6094101;23;20219;-83
2023/06/21 15:10:17;;;;;;;;;;;;;;;9.13;100.00;99736.91;6094336;23;19920;-83
2023/06/21 15:12:42;;;;;;;;;;;;;;;9.16;100.00;99737.66;6095750;23;19921;-83
2023/06/21 15:15:08;;;;;;;;;;;;;;;9.17;100.00;99739.34;6096545;23;19913;-83
2023/06/21 15:17:33;;;;;;;;;;;;;;;9.13;100.00;99723.69;6119276;23;19999;-83
2023/06/21 15:19:58;;;;;;;;;;;;;;;9.18;100.00;99730.53;6096741;23;19914;-84
2023/06/21 15:22:24;;;;;;;;;;;;;;;9.15;100.00;99732.44;6094354;23;20035;-83
2023/06/21 15:24:49;;;;;;;;;;;;;;;9.15;100.00;99730.63;6094644;23;19913;-83
2023/06/21 15:27:14;;;;;;;;;;;;;;;9.12;100.00;99735.19;6086612;23;19944;-83
2023/06/21 15:29:39;;;;;;;;;;;;;;;9.11;100.00;99730.81;6094912;23;19917;-84
2023/06/21 15:32:05;;;;;;;;;;;;;;;9.12;100.00;99730.75;6096247;23;20262;-83
2023/06/21 15:34:30;;;;;;;;;;;;;;;9.13;100.00;99727.19;6095448;23;19984;-83
2023/06/21 15:36:55;;;;;;;;;;;;;;;9.12;100.00;99725.47;6096011;23;19944;-83
2023/06/21 15:39:20;;;;;;;;;;;;;;;9.13;100.00;99724.56;6095953;23;19913;-82
2023/06/21 15:41:48;;;;;;;;;;;;;;;9.15;100.00;99725.34;6094719;23;20243;-83
2023/06/21 15:44:13;;;;;;;;;;;;;;;9.18;100.00;99729.66;6096156;23;20211;-83
2023/06/21 15:46:38;;;;;;;;;;;;;;;9.20;100.00;99733.97;6096095;23;19923;-83
2023/06/21 15:49:04;;;;;;;;;;;;;;;9.17;100.00;99727.94;6096245;23;19924;-83
2023/06/21 15:51:29;;;;;;;;;;;;;;;9.22;100.00;99718.91;6096454;23;19913;-83
2023/06/21 15:53:55;;;;;;;;;;;;;;;9.23;100.00;99710.06;6096448;23;19917;-82
2023/06/21 15:56:20;;;;;;;;;;;;;;;9.18;100.00;99714.66;6094215;23;19913;-83
2023/06/21 15:58:46;;;;;;;;;;;;;;;9.23;100.00;99711.84;6094429;23;19924;-83
2023/06/21 16:01:13;;;;;;;;;;;;;;;9.28;100.00;99704.59;6094507;23;19948;-83
2023/06/21 16:03:40;;;;;;;;;;;;;;;9.24;100.00;99703.84;6095517;23;19917;-83
2023/06/21 16:06:06;;;;;;;;;;;;;;;9.27;100.00;99708.16;6094397;23;20326;-83
2023/06/21 16:08:31;;;;;;;;;;;;;;;9.23;100.00;99707.41;6095594;23;19920;-83
2023/06/21 16:10:56;;;;;;;;;;;;;;;9.24;100.00;99709.13;6094333;23;19921;-83
2023/06/21 16:13:21;;;;;;;;;;;;;;;9.22;100.00;99703.06;6094920;23;19917;-83
2023/06/21 16:15:47;;;;;;;;;;;;;;;9.21;100.00;99709.25;6094212;23;19992;-82
2023/06/21 16:18:12;;;;;;;;;;;;;;;9.20;100.00;99698.75;6094003;23;19909;-83
2023/06/21 16:20:37;;;;;;;;;;;;;;;9.24;100.00;99698.56;6096159;23;19918;-82
2023/06/21 16:23:02;;;;;;;;;;;;;;;9.27;100.00;99703.75;6095128;23;19913;-83
2023/06/21 16:25:28;;;;;;;;;;;;;;;9.24;100.00;99690.63;6116393;23;19924;-83
2023/06/21 16:27:53;;;;;;;;;;;;;;;9.24;100.00;99698.56;6093581;23;19924;-83
2023/06/21 16:30:18;;;;;;;;;;;;;;;9.24;100.00;99690.63;6096148;23;19917;-83
2023/06/21 16:32:43;;;;;;;;;;;;;;;9.23;100.00;99688.03;6096033;23;19968;-83
2023/06/21 16:35:09;;;;;;;;;;;;;;;9.21;100.00;99681.97;6096051;23;20348;-82
2023/06/21 16:37:34;;;;;;;;;;;;;;;9.20;100.00;99675.78;6094274;23;20039;-83
2023/06/21 16:39:59;;;;;;;;;;;;;;;9.27;100.00;99665.88;6096311;23;20230;-83
2023/06/21 16:42:27;;;;;;;;;;;;;;;9.25;100.00;99668.56;6092960;23;19913;-83
2023/06/21 16:44:52;;;;;;;;;;;;;;;9.25;100.00;99665.03;6118719;23;19917;-83
2023/06/21 16:47:17;;;;;;;;;;;;;;;9.25;100.00;99665.94;6096436;23;19937;-83
2023/06/21 16:49:43;;;;;;;;;;;;;;;9.20;100.00;99662.56;6095799;23;20310;-82
2023/06/21 16:52:09;;;;;;;;;;;;;;;9.23;100.00;99651.88;6095236;23;20623;-83
2023/06/21 16:54:34;;;;;;;;;;;;;;;9.21;100.00;99642.31;6095764;23;19938;-83
2023/06/21 16:56:59;;;;;;;;;;;;;;;9.23;100.00;99646.59;6094870;23;19917;-83
2023/06/21 16:59:24;;;;;;;;;;;;;;;9.22;100.00;99642.25;6097256;23;19913;-83
2023/06/21 17:01:49;;;;;;;;;;;;;;;9.19;100.00;99629.16;6095052;23;20000;-82
2023/06/21 17:04:15;;;;;;;;;;;;;;;9.17;100.00;99623.03;6096210;23;19921;-83
2023/06/21 17:06:40;;;;;;;;;;;;;;;9.21;100.00;99624.66;6096141;23;19914;-82
2023/06/21 17:09:06;;;;;;;;;;;;;;;9.20;100.00;99624.72;6089402;23;19965;-83
2023/06/21 17:11:31;;;;;;;;;;;;;;;9.94;100.00;99630.50;6094456;23;19921;-83
2023/06/21 17:14:02;;;;;;;;;;;;;;;9.46;100.00;99639.53;6095968;23;19968;-83
2023/06/21 17:16:27;;;;;;;;;;;;;;;9.33;100.00;99631.22;6091665;23;20004;-83
2023/06/21 17:18:53;;;;;;;;;;;;;;;9.30;100.00;99634.00;6097477;23;19945;-82
2023/06/21 17:21:18;;;;;;;;;;;;;;;9.27;100.00;99631.50;6097266;23;20377;-82
2023/06/21 17:23:43;;;;;;;;;;;;;;;9.30;100.00;99627.84;6095753;23;19913;-83
2023/06/21 17:26:08;;;;;;;;;;;;;;;9.29;100.00;99637.56;6093761;23;19914;-83
2023/06/21 17:28:34;;;;;;;;;;;;;;;9.25;100.00;99634.19;6097287;23;19909;-83
2023/06/21 17:30:59;;;;;;;;;;;;;;;9.24;100.00;99628.97;6095082;23;20000;-82
2023/06/21 17:33:24;;;;;;;;;;;;;;;9.24;100.00;99613.97;6096581;23;19920;-83
2023/06/21 17:35:49;;;;;;;;;;;;;;;9.25;100.00;99610.41;6095546;23;19918;-83
2023/06/21 17:38:15;;;;;;;;;;;;;;;9.26;100.00;99612.09;6095071;23;19917;-83
2023/06/21 17:40:40;;;;;;;;;;;;;;;9.20;100.00;99615.00;6093743;23;19960;-82
2023/06/21 17:43:05;;;;;;;;;;;;;;;9.22;100.00;99615.81;6097164;23;19953;-83
2023/06/21 17:45:32;;;;;;;;;;;;;;;9.18;100.00;99614.19;6095380;23;19920;-83
2023/06/21 17:47:58;;;;;;;;;;;;;;;9.23;100.00;99606.94;6094634;23;19909;-83
2023/06/21 17:50:23;;;;;;;;;;;;;;;9.21;100.00;99608.78;6097073;23;19918;-82
2023/06/21 17:52:48;;;;;;;;;;;;;;;9.25;100.00;99612.16;6095193;23;19980;-83
2023/06/21 17:55:14;;;;;;;;;;;;;;;9.20;100.00;99607.06;6096314;23;19964;-82